Bruce, Wisconsin
Current Conditions -  °F | °C
As of 8:35 AM on Monday 22 Dec 2014 (Local Time) from KRCX Reporting Station
Haze Haze  
Wind Chill: -3°   Ceiling: 400
Heat Index:   Visibility: 2.5mi
Dew Point:   Wind: 9mph
Humidity: 96%   Direction: 120°ESE
Pressure: 29.77"   Gusts: NA
Location:  45.46°N, 91.27°W
Report Text: KRCX 221435Z AUTO 12008KT 2 1/2SM BR OVC004 01/01 A2977 RMK AO2 T00110005
Loading
Personal Weather Stations






























Interactive Weather Map New forecast layout! Learn more

10-Day Weather Forecast

Advertisements
Track Severe Weather on mobile